createdAt,value
2019-03-12T00:00:14.114Z,-1.87
2019-03-12T00:02:42.547Z,-1.86
2019-03-12T00:05:11.127Z,-1.76
2019-03-12T00:07:39.549Z,-1.67
2019-03-12T00:10:09.141Z,-1.47
2019-03-12T00:12:37.589Z,-1.49
2019-03-12T00:15:07.079Z,-1.52
2019-03-12T00:17:35.488Z,-1.62
2019-03-12T00:20:05.291Z,-1.62
2019-03-12T00:22:33.780Z,-1.59
2019-03-12T00:25:02.214Z,-1.64
2019-03-12T00:27:30.662Z,-1.63
2019-03-12T00:29:59.087Z,-1.62
2019-03-12T00:32:27.763Z,-1.61
2019-03-12T00:34:56.177Z,-1.62
2019-03-12T00:37:24.592Z,-1.51
2019-03-12T00:39:53.298Z,-1.16
2019-03-12T00:42:21.802Z,-1.21
2019-03-12T00:44:50.289Z,-1.28
2019-03-12T00:47:19.073Z,-1.46
2019-03-12T00:49:47.485Z,-1.47
2019-03-12T00:52:15.908Z,-1.49
2019-03-12T00:54:44.350Z,-1.64
2019-03-12T00:57:12.794Z,-1.57
2019-03-12T00:59:41.242Z,-1.64
2019-03-12T01:02:09.650Z,-1.63
2019-03-12T01:04:38.094Z,-1.61
2019-03-12T01:07:06.561Z,-1.64
2019-03-12T01:09:35.171Z,-1.66
2019-03-12T01:12:03.641Z,-1.80
2019-03-12T01:14:32.147Z,-1.77
2019-03-12T01:17:00.613Z,-1.86
2019-03-12T01:19:29.099Z,-1.81
2019-03-12T01:21:57.519Z,-1.64
2019-03-12T01:24:25.988Z,-1.62
2019-03-12T01:26:54.397Z,-1.61
2019-03-12T01:29:22.825Z,-1.74
2019-03-12T01:31:51.335Z,-1.66
2019-03-12T01:34:19.862Z,-1.61
2019-03-12T01:36:48.272Z,-1.70
2019-03-12T01:39:16.735Z,-1.62
2019-03-12T01:41:45.139Z,-1.59
2019-03-12T01:44:13.557Z,-1.69
2019-03-12T01:46:42.010Z,-1.88
2019-03-12T01:49:10.458Z,-1.83
2019-03-12T01:51:38.867Z,-1.77
2019-03-12T01:54:07.394Z,-1.74
2019-03-12T01:56:35.824Z,-1.62
2019-03-12T01:59:04.269Z,-1.70
2019-03-12T02:01:32.711Z,-1.72
2019-03-12T02:04:01.157Z,-1.57
2019-03-12T02:06:29.605Z,-1.50
2019-03-12T02:08:58.025Z,-1.60
2019-03-12T02:11:26.783Z,-1.67
2019-03-12T02:13:55.195Z,-1.77
2019-03-12T02:16:23.610Z,-1.88
2019-03-12T02:18:52.064Z,-2.02
2019-03-12T02:21:20.474Z,-2.04
2019-03-12T02:23:48.939Z,-2.09
2019-03-12T02:26:17.357Z,-2.03
2019-03-12T02:28:45.800Z,-2.16
2019-03-12T02:31:14.287Z,-2.26
2019-03-12T02:33:42.800Z,-2.21
2019-03-12T02:36:11.307Z,-2.17
2019-03-12T02:38:39.724Z,-2.12
2019-03-12T02:41:08.349Z,-2.09
2019-03-12T02:43:36.748Z,-2.09
2019-03-12T02:46:05.281Z,-2.12
2019-03-12T02:48:33.766Z,-2.13
2019-03-12T02:51:02.257Z,-2.21
2019-03-12T02:53:30.896Z,-2.21
2019-03-12T02:56:01.712Z,-2.18
2019-03-12T02:58:29.462Z,-2.16
2019-03-12T03:00:57.900Z,-2.12
2019-03-12T03:03:26.619Z,-2.10
2019-03-12T03:05:59.416Z,-1.81
2019-03-12T03:08:31.952Z,-1.96
2019-03-12T03:11:00.427Z,-2.03
2019-03-12T03:13:28.844Z,-2.10
2019-03-12T03:15:57.381Z,-1.93
2019-03-12T03:18:25.798Z,-1.85
2019-03-12T03:20:54.212Z,-1.87
2019-03-12T03:23:22.957Z,-1.84
2019-03-12T03:25:51.375Z,-1.82
2019-03-12T03:28:19.798Z,-1.88
2019-03-12T03:30:48.224Z,-1.94
2019-03-12T03:33:16.672Z,-2.00
2019-03-12T03:35:45.186Z,-1.92
2019-03-12T03:38:13.679Z,-2.02
2019-03-12T03:40:42.091Z,-2.00
2019-03-12T03:43:10.552Z,-1.96
2019-03-12T03:45:39.002Z,-1.92
2019-03-12T03:48:07.418Z,-2.03
2019-03-12T03:50:35.967Z,-1.89
2019-03-12T03:53:04.370Z,-1.96
2019-03-12T03:55:32.868Z,-1.86
2019-03-12T03:58:01.461Z,-1.85
2019-03-12T04:00:29.918Z,-1.81
2019-03-12T04:02:58.405Z,-1.81
2019-03-12T04:05:26.883Z,-1.75
2019-03-12T04:07:55.302Z,-1.73
2019-03-12T04:10:23.719Z,-1.77
2019-03-12T04:12:52.167Z,-1.80
2019-03-12T04:15:20.658Z,-1.80
2019-03-12T04:17:49.141Z,-1.66
2019-03-12T04:20:18.632Z,-1.50
2019-03-12T04:22:47.175Z,-1.48
2019-03-12T04:25:16.163Z,-1.59
2019-03-12T04:27:44.577Z,-1.55
2019-03-12T04:30:18.303Z,-1.68
2019-03-12T04:32:47.094Z,-1.59
2019-03-12T04:35:29.896Z,-1.72
2019-03-12T04:38:07.239Z,-1.86
2019-03-12T04:40:35.907Z,-1.73
2019-03-12T04:43:04.414Z,-1.71
2019-03-12T04:45:33.036Z,-1.64
2019-03-12T04:48:01.476Z,-1.61
2019-03-12T04:50:29.887Z,-1.67
2019-03-12T04:52:59.255Z,-1.59
2019-03-12T04:55:27.697Z,-1.57
2019-03-12T04:57:56.155Z,-1.68
2019-03-12T05:00:24.714Z,-1.67
2019-03-12T05:02:53.136Z,-1.73
2019-03-12T05:05:21.581Z,-1.77
2019-03-12T05:07:50.033Z,-1.69
2019-03-12T05:10:18.557Z,-1.66
2019-03-12T05:12:46.991Z,-1.55
2019-03-12T05:15:19.261Z,-1.63
2019-03-12T05:17:47.804Z,-1.67
2019-03-12T05:20:16.671Z,-1.63
2019-03-12T05:22:45.110Z,-1.66
2019-03-12T05:25:14.767Z,-1.62
2019-03-12T05:27:43.643Z,-1.56
2019-03-12T05:30:14.534Z,-1.53
2019-03-12T05:32:42.956Z,-1.50
2019-03-12T05:35:11.551Z,-1.47
2019-03-12T05:37:39.964Z,-1.36
2019-03-12T05:40:10.827Z,-1.25
2019-03-12T05:42:39.308Z,-1.36
2019-03-12T05:45:10.798Z,-1.33
2019-03-12T05:47:39.219Z,-1.29
2019-03-12T05:50:10.718Z,-1.32
2019-03-12T05:52:39.132Z,-1.25
2019-03-12T05:55:09.445Z,-1.29
2019-03-12T05:57:37.874Z,-1.36
2019-03-12T06:00:09.444Z,-1.49
2019-03-12T06:02:37.886Z,-1.40
2019-03-12T06:05:07.188Z,-1.39
2019-03-12T06:07:35.608Z,-1.37
2019-03-12T06:10:06.611Z,-1.41
2019-03-12T06:12:35.076Z,-1.46
2019-03-12T06:15:04.534Z,-1.33
2019-03-12T06:17:33.006Z,-1.37
2019-03-12T06:20:01.415Z,-1.33
2019-03-12T06:22:29.875Z,-1.31
2019-03-12T06:24:58.300Z,-1.22
2019-03-12T06:27:26.751Z,-1.12
2019-03-12T06:29:55.258Z,-1.04
2019-03-12T06:32:28.070Z,-0.72
2019-03-12T06:34:58.192Z,-0.41
2019-03-12T06:37:31.045Z,-0.11
2019-03-12T06:40:06.808Z,0.19
2019-03-12T06:42:36.900Z,0.25
2019-03-12T06:45:13.694Z,0.47
2019-03-12T06:47:46.415Z,0.90
2019-03-12T06:50:24.354Z,1.37
2019-03-12T06:52:59.928Z,1.40
2019-03-12T06:55:30.092Z,1.47
2019-03-12T06:58:22.356Z,1.45
2019-03-12T07:00:55.260Z,1.54
2019-03-12T07:03:28.313Z,2.02
2019-03-12T07:05:58.395Z,2.02
2019-03-12T07:08:28.483Z,2.43
2019-03-12T07:11:01.687Z,2.55
2019-03-12T07:13:34.709Z,2.87
2019-03-12T07:16:05.874Z,3.28
2019-03-12T07:18:44.816Z,3.28
2019-03-12T07:21:27.234Z,3.49
2019-03-12T07:24:09.364Z,3.85
2019-03-12T07:26:42.224Z,4.00
2019-03-12T07:29:14.872Z,4.32
2019-03-12T07:31:45.028Z,4.13
2019-03-12T07:34:18.500Z,4.10
2019-03-12T07:36:54.714Z,4.13
2019-03-12T07:39:33.669Z,4.55
2019-03-12T07:42:09.320Z,4.74
2019-03-12T07:44:48.084Z,5.26
2019-03-12T07:47:35.808Z,5.42
2019-03-12T07:50:14.927Z,5.93
2019-03-12T07:52:56.933Z,6.37
2019-03-12T07:55:29.735Z,6.62
2019-03-12T07:58:01.249Z,6.83
2019-03-12T08:00:31.409Z,7.06
2019-03-12T08:03:17.337Z,7.40
2019-03-12T08:05:47.467Z,8.32
2019-03-12T08:08:17.552Z,8.16
2019-03-12T08:10:56.552Z,8.13
2019-03-12T08:13:41.995Z,8.60
2019-03-12T08:16:12.150Z,8.17
2019-03-12T08:18:47.772Z,9.49
2019-03-12T08:21:34.282Z,9.83
2019-03-12T08:24:04.335Z,9.23
2019-03-12T08:26:34.435Z,8.89
2019-03-12T08:29:21.016Z,9.50
2019-03-12T08:32:03.494Z,9.88
2019-03-12T08:34:33.588Z,9.72
2019-03-12T08:37:06.356Z,10.77
2019-03-12T08:39:42.450Z,11.40
2019-03-12T08:42:15.232Z,10.98
2019-03-12T08:45:01.842Z,11.95
2019-03-12T08:47:48.088Z,11.80
2019-03-12T08:50:34.375Z,12.72
2019-03-12T08:53:07.233Z,11.83
2019-03-12T08:55:43.254Z,13.10
2019-03-12T08:58:13.325Z,13.81
2019-03-12T09:00:43.446Z,13.60
2019-03-12T09:03:30.043Z,13.87
2019-03-12T09:06:08.799Z,14.45
2019-03-12T09:08:42.072Z,13.80
2019-03-12T09:11:12.166Z,14.27
2019-03-12T09:13:52.464Z,14.93
2019-03-12T09:16:28.684Z,14.93
2019-03-12T09:19:01.466Z,15.16
2019-03-12T09:21:31.502Z,15.32
2019-03-12T09:24:07.240Z,14.51
2019-03-12T09:26:43.625Z,13.86
2019-03-12T09:29:16.489Z,14.64
2019-03-12T09:31:58.598Z,15.02
2019-03-12T09:34:34.467Z,15.23
2019-03-12T09:37:10.503Z,15.83
2019-03-12T09:39:55.711Z,16.11
2019-03-12T09:42:44.316Z,15.93
2019-03-12T09:45:26.446Z,15.34
2019-03-12T09:47:58.985Z,14.45
2019-03-12T09:50:29.082Z,14.63
2019-03-12T09:53:17.293Z,16.00
2019-03-12T09:55:56.311Z,14.71
2019-03-12T09:58:38.356Z,13.94
2019-03-12T10:01:11.189Z,13.20
2019-03-12T10:03:41.335Z,13.24
2019-03-12T10:06:17.712Z,12.72
2019-03-12T10:08:47.832Z,11.07
2019-03-12T10:11:29.833Z,11.89
2019-03-12T10:14:06.153Z,11.31
2019-03-12T10:16:42.068Z,11.99
2019-03-12T10:19:30.079Z,11.68
2019-03-12T10:22:12.243Z,10.66
2019-03-12T10:24:42.424Z,10.20
2019-03-12T10:27:28.919Z,11.01
2019-03-12T10:30:14.961Z,11.50
2019-03-12T10:32:53.750Z,11.63
2019-03-12T10:35:23.912Z,11.57
2019-03-12T10:38:03.031Z,12.16
2019-03-12T10:40:33.083Z,13.45
2019-03-12T10:43:15.951Z,13.78
2019-03-12T10:45:49.049Z,13.76
2019-03-12T10:48:18.087Z,14.17
2019-03-12T10:50:47.991Z,14.05
2019-03-12T10:53:16.451Z,14.15
2019-03-12T10:55:44.874Z,14.24
2019-03-12T10:58:13.423Z,14.51
2019-03-12T11:00:42.567Z,14.76
2019-03-12T11:03:10.983Z,15.18
2019-03-12T11:05:45.909Z,15.24
2019-03-12T11:08:09.807Z,15.16
2019-03-12T11:10:38.362Z,13.85
2019-03-12T11:13:06.837Z,13.53
2019-03-12T11:15:35.365Z,12.38
2019-03-12T11:18:03.955Z,12.00
2019-03-12T11:20:32.452Z,10.94
2019-03-12T11:23:01.116Z,10.77
2019-03-12T11:25:29.605Z,10.78
2019-03-12T11:27:58.081Z,10.54
2019-03-12T11:30:26.580Z,10.46
2019-03-12T11:32:55.119Z,10.12
2019-03-12T11:35:23.662Z,9.62
2019-03-12T11:37:52.236Z,8.89
2019-03-12T11:40:23.070Z,8.08
2019-03-12T11:42:51.689Z,8.04
2019-03-12T11:45:25.970Z,7.55
2019-03-12T11:47:50.537Z,7.38
2019-03-12T11:50:23.623Z,7.79
2019-03-12T11:52:57.164Z,7.19
2019-03-12T11:55:22.475Z,7.68
2019-03-12T11:57:51.058Z,8.03
2019-03-12T12:00:28.998Z,7.89
2019-03-12T12:03:00.271Z,7.87
2019-03-12T12:05:28.474Z,7.98
2019-03-12T12:07:56.999Z,8.08
2019-03-12T12:10:25.744Z,7.99
2019-03-12T12:12:54.277Z,8.20
2019-03-12T12:15:22.910Z,8.10
2019-03-12T12:17:51.457Z,8.04
2019-03-12T12:20:29.377Z,8.28
2019-03-12T12:22:50.270Z,8.20
2019-03-12T12:25:19.769Z,7.80
2019-03-12T12:27:48.288Z,7.97
2019-03-12T12:30:24.092Z,8.04
2019-03-12T12:32:52.649Z,7.86
2019-03-12T12:35:21.186Z,8.02
2019-03-12T12:37:49.625Z,7.64
2019-03-12T12:40:19.510Z,7.32
2019-03-12T12:42:48.094Z,7.87
2019-03-12T12:45:19.083Z,7.86
2019-03-12T12:47:47.642Z,7.51
2019-03-12T12:50:16.366Z,7.59
2019-03-12T12:52:44.968Z,7.57
2019-03-12T12:55:14.659Z,7.16
2019-03-12T12:57:43.222Z,7.18
2019-03-12T13:00:15.027Z,7.42
2019-03-12T13:02:43.620Z,7.34
2019-03-12T13:05:12.188Z,7.38
2019-03-12T13:07:40.676Z,7.33
2019-03-12T13:10:20.757Z,7.55
2019-03-12T13:12:49.314Z,7.42
2019-03-12T13:15:17.898Z,7.26
2019-03-12T13:17:46.384Z,7.27
2019-03-12T13:20:15.172Z,7.38
2019-03-12T13:22:43.721Z,7.36
2019-03-12T13:25:14.674Z,7.37
2019-03-12T13:27:43.554Z,7.42
2019-03-12T13:30:17.992Z,6.98
2019-03-12T13:32:46.562Z,7.10
2019-03-12T13:35:17.294Z,7.23
2019-03-12T13:37:45.985Z,7.41
2019-03-12T13:40:22.678Z,7.68
2019-03-12T13:42:51.359Z,7.63
2019-03-12T13:45:22.516Z,7.47
2019-03-12T13:47:51.097Z,7.57
2019-03-12T13:50:20.066Z,7.61
2019-03-12T13:52:48.757Z,7.67
2019-03-12T13:55:17.457Z,7.66
2019-03-12T13:57:46.181Z,7.69
2019-03-12T14:00:20.307Z,7.66
2019-03-12T14:02:48.875Z,7.72
2019-03-12T14:05:17.420Z,7.70
2019-03-12T14:07:45.941Z,7.76
2019-03-12T14:10:22.303Z,7.60
2019-03-12T14:12:52.106Z,7.75
2019-03-12T14:15:26.134Z,7.58
2019-03-12T14:17:54.712Z,7.54
2019-03-12T14:20:40.392Z,7.80
2019-03-12T14:23:10.679Z,7.87
2019-03-12T14:25:39.243Z,7.98
2019-03-12T14:28:07.838Z,7.71
2019-03-12T14:30:36.427Z,7.99
2019-03-12T14:33:05.047Z,7.76
2019-03-12T14:35:33.644Z,7.61
2019-03-12T14:38:02.168Z,7.35
2019-03-12T14:40:30.664Z,7.23
2019-03-12T14:42:59.254Z,7.44
2019-03-12T14:45:31.058Z,7.45
2019-03-12T14:47:59.657Z,7.61
2019-03-12T14:50:30.121Z,7.39
2019-03-12T14:53:07.463Z,7.47
2019-03-12T14:55:35.435Z,7.55
2019-03-12T14:58:03.885Z,7.40
2019-03-12T15:00:32.470Z,7.41
2019-03-12T15:03:01.039Z,7.52
2019-03-12T15:05:29.581Z,7.52
2019-03-12T15:07:58.147Z,7.54
2019-03-12T15:10:26.643Z,7.44
2019-03-12T15:12:55.173Z,7.39
2019-03-12T15:15:23.735Z,7.32
2019-03-12T15:17:52.153Z,7.34
2019-03-12T15:20:20.752Z,7.33
2019-03-12T15:22:49.249Z,7.26
2019-03-12T15:25:17.858Z,7.44
2019-03-12T15:27:46.288Z,7.45
2019-03-12T15:30:23.559Z,7.59
2019-03-12T15:32:51.988Z,7.58
2019-03-12T15:35:20.476Z,7.39
2019-03-12T15:37:49.081Z,7.35
2019-03-12T15:40:17.642Z,7.44
2019-03-12T15:42:46.735Z,7.42
2019-03-12T15:45:16.345Z,7.44
2019-03-12T15:47:44.859Z,7.34
2019-03-12T15:50:18.943Z,7.27
2019-03-12T15:52:47.626Z,7.34
2019-03-12T15:55:16.118Z,7.10
2019-03-12T15:57:44.592Z,7.08
2019-03-12T16:00:16.252Z,6.97
2019-03-12T16:02:44.757Z,6.90
2019-03-12T16:05:13.415Z,6.65
2019-03-12T16:07:41.954Z,6.68
2019-03-12T16:10:15.186Z,6.69
2019-03-12T16:12:43.793Z,6.68
2019-03-12T16:15:14.562Z,6.56
2019-03-12T16:17:43.095Z,6.60
2019-03-12T16:20:22.521Z,6.53
2019-03-12T16:22:51.113Z,6.45
2019-03-12T16:25:19.603Z,6.43
2019-03-12T16:27:48.129Z,6.43
2019-03-12T16:30:17.788Z,6.44
2019-03-12T16:32:46.304Z,6.42
2019-03-12T16:35:14.864Z,6.35
2019-03-12T16:37:43.309Z,6.24
2019-03-12T16:40:16.808Z,6.08
2019-03-12T16:42:45.389Z,6.07
2019-03-12T16:45:16.155Z,6.07
2019-03-12T16:47:44.698Z,6.07
2019-03-12T16:50:16.974Z,6.06
2019-03-12T16:52:45.539Z,5.93
2019-03-12T16:55:20.491Z,5.95
2019-03-12T16:57:48.901Z,6.00
2019-03-12T17:00:18.878Z,6.03
2019-03-12T17:02:47.464Z,5.97
2019-03-12T17:05:16.314Z,5.97
2019-03-12T17:07:44.917Z,5.82
2019-03-12T17:10:20.731Z,5.88
2019-03-12T17:12:49.308Z,5.84
2019-03-12T17:15:22.817Z,5.83
2019-03-12T17:17:51.309Z,5.69
2019-03-12T17:20:19.891Z,5.73
2019-03-12T17:22:48.488Z,5.71
2019-03-12T17:25:17.049Z,5.69
2019-03-12T17:27:45.559Z,5.73
2019-03-12T17:30:19.385Z,5.61
2019-03-12T17:32:47.951Z,5.62
2019-03-12T17:35:30.945Z,5.56
2019-03-12T17:37:59.598Z,5.61
2019-03-12T17:40:28.097Z,5.50
2019-03-12T17:42:56.588Z,5.54
2019-03-12T17:45:25.188Z,5.50
2019-03-12T17:47:53.763Z,5.45
2019-03-12T17:50:22.427Z,5.33
2019-03-12T17:52:50.862Z,5.35
2019-03-12T17:55:19.423Z,5.34
2019-03-12T17:57:50.582Z,5.28
2019-03-12T18:00:28.362Z,5.17
2019-03-12T18:02:56.745Z,5.22
2019-03-12T18:05:25.266Z,5.26
2019-03-12T18:07:54.107Z,5.29
2019-03-12T18:10:22.538Z,5.23
2019-03-12T18:12:51.109Z,5.22
2019-03-12T18:15:20.500Z,5.13
2019-03-12T18:17:49.374Z,5.25
2019-03-12T18:20:22.573Z,5.19
2019-03-12T18:22:51.109Z,5.24
2019-03-12T18:25:28.419Z,5.29
2019-03-12T18:27:57.103Z,5.25
2019-03-12T18:30:25.615Z,5.29
2019-03-12T18:32:54.159Z,5.32
2019-03-12T18:35:22.641Z,5.34
2019-03-12T18:37:51.240Z,5.43
2019-03-12T18:40:21.680Z,5.48
2019-03-12T18:42:50.283Z,5.48
2019-03-12T18:45:26.863Z,5.47
2019-03-12T18:47:55.340Z,5.56
2019-03-12T18:50:23.862Z,5.50
2019-03-12T18:52:52.434Z,5.48
2019-03-12T18:55:38.187Z,5.43
2019-03-12T18:58:10.300Z,5.31
2019-03-12T19:00:41.099Z,5.24
2019-03-12T19:03:09.577Z,5.44
2019-03-12T19:05:38.103Z,5.38
2019-03-12T19:08:06.700Z,5.35
2019-03-12T19:10:35.217Z,5.43
2019-03-12T19:13:03.708Z,5.49
2019-03-12T19:15:32.315Z,5.49
2019-03-12T19:18:00.817Z,5.56
2019-03-12T19:20:32.756Z,5.60
2019-03-12T19:22:59.566Z,5.69
2019-03-12T19:25:39.642Z,5.69
2019-03-12T19:28:08.218Z,5.79
2019-03-12T19:30:36.861Z,5.89
2019-03-12T19:33:14.443Z,6.02
2019-03-12T19:35:42.954Z,6.06
2019-03-12T19:38:11.533Z,6.16
2019-03-12T19:40:45.339Z,6.31
2019-03-12T19:43:14.091Z,6.35
2019-03-12T19:45:42.897Z,6.33
2019-03-12T19:48:11.467Z,6.37
2019-03-12T19:50:40.017Z,6.35
2019-03-12T19:53:08.655Z,6.25
2019-03-12T19:55:40.047Z,6.33
2019-03-12T19:58:08.664Z,6.31
2019-03-12T20:00:38.036Z,6.20
2019-03-12T20:03:12.060Z,6.13
2019-03-12T20:05:37.082Z,6.14
2019-03-12T20:08:05.754Z,6.09
2019-03-12T20:10:58.067Z,6.10
2019-03-12T20:13:46.258Z,6.18
2019-03-12T20:16:32.769Z,6.05
2019-03-12T20:19:29.659Z,5.99
2019-03-12T20:22:20.885Z,6.04
2019-03-12T20:25:14.666Z,5.97
2019-03-12T20:28:01.347Z,6.03
2019-03-12T20:30:59.274Z,6.04
2019-03-12T20:34:02.439Z,6.16
2019-03-12T20:36:49.037Z,6.11
2019-03-12T20:39:29.251Z,6.20
2019-03-12T20:42:15.901Z,6.30
2019-03-12T20:45:20.966Z,6.28
2019-03-12T20:48:11.638Z,6.23
2019-03-12T20:51:17.008Z,6.25
2019-03-12T20:54:15.940Z,6.29
2019-03-12T20:57:07.245Z,6.33
2019-03-12T21:00:09.875Z,6.46
2019-03-12T21:03:04.103Z,6.60
2019-03-12T21:06:07.418Z,6.63
2019-03-12T21:08:58.600Z,6.76
2019-03-12T21:11:41.646Z,6.82
2019-03-12T21:14:29.558Z,6.67
2019-03-12T21:17:34.380Z,6.53
2019-03-12T21:20:40.761Z,6.38
2019-03-12T21:23:17.870Z,6.34
2019-03-12T21:25:58.216Z,6.29
2019-03-12T21:28:38.495Z,6.23
2019-03-12T21:31:07.271Z,6.23
2019-03-12T21:33:35.766Z,6.27
2019-03-12T21:36:07.941Z,6.21
2019-03-12T21:38:35.861Z,6.13
2019-03-12T21:41:04.418Z,5.97
2019-03-12T21:43:32.935Z,5.96
2019-03-12T21:46:01.490Z,5.97
2019-03-12T21:48:29.959Z,6.05
2019-03-12T21:50:58.448Z,6.05
2019-03-12T21:53:26.916Z,5.87
2019-03-12T21:55:55.346Z,5.89
2019-03-12T21:58:23.771Z,5.98
2019-03-12T22:00:52.287Z,5.98
2019-03-12T22:03:20.732Z,5.87
2019-03-12T22:05:49.256Z,6.02
2019-03-12T22:08:17.649Z,6.01
2019-03-12T22:10:46.173Z,5.88
2019-03-12T22:13:14.796Z,5.93
2019-03-12T22:15:43.216Z,5.98
2019-03-12T22:18:11.723Z,5.99
2019-03-12T22:20:40.194Z,5.99
2019-03-12T22:23:28.437Z,6.05
2019-03-12T22:25:57.127Z,6.02
2019-03-12T22:28:25.545Z,6.10
2019-03-12T22:30:54.099Z,6.03
2019-03-12T22:33:22.616Z,6.03
2019-03-12T22:35:51.188Z,6.09
2019-03-12T22:38:19.663Z,6.20
2019-03-12T22:40:48.072Z,6.26
2019-03-12T22:43:16.590Z,6.35
2019-03-12T22:45:45.550Z,6.43
2019-03-12T22:48:13.969Z,6.41
2019-03-12T22:50:42.455Z,6.38
2019-03-12T22:53:10.914Z,6.40
2019-03-12T22:55:39.330Z,6.44
2019-03-12T22:58:07.760Z,6.49
2019-03-12T23:00:40.008Z,6.59
2019-03-12T23:03:08.621Z,6.54
2019-03-12T23:05:38.077Z,6.58
2019-03-12T23:08:06.628Z,6.67
2019-03-12T23:10:35.269Z,6.73
2019-03-12T23:13:03.758Z,6.72
2019-03-12T23:15:32.435Z,6.74
2019-03-12T23:18:00.954Z,6.71
2019-03-12T23:20:29.427Z,6.67
2019-03-12T23:22:57.880Z,6.53
2019-03-12T23:25:26.294Z,6.50
2019-03-12T23:27:54.744Z,6.66
2019-03-12T23:30:24.278Z,6.70
2019-03-12T23:32:53.763Z,6.66
2019-03-12T23:35:22.267Z,6.63
2019-03-12T23:37:50.869Z,6.58
2019-03-12T23:40:19.701Z,6.72
2019-03-12T23:42:48.274Z,6.88
2019-03-12T23:45:18.071Z,6.93
2019-03-12T23:47:50.013Z,7.22
2019-03-12T23:50:19.938Z,7.19
2019-03-12T23:52:48.421Z,7.18
2019-03-12T23:55:18.267Z,7.13
2019-03-12T23:57:47.045Z,7.05
